sensor_id;sensor_type;location;lat;lon;timestamp;P1;durP1;ratioP1;P2;durP2;ratioP2
12906;SDS011;6521;50.498;8.474;2024-01-11T00:01:58;34.17;;;16.90;;
12906;SDS011;6521;50.498;8.474;2024-01-11T00:04:29;37.87;;;17.57;;
12906;SDS011;6521;50.498;8.474;2024-01-11T00:07:00;37.93;;;19.50;;
12906;SDS011;6521;50.498;8.474;2024-01-11T00:09:30;37.30;;;18.73;;
12906;SDS011;6521;50.498;8.474;2024-01-11T00:12:01;33.33;;;17.90;;
12906;SDS011;6521;50.498;8.474;2024-01-11T00:14:32;35.17;;;17.03;;
12906;SDS011;6521;50.498;8.474;2024-01-11T00:17:03;36.83;;;17.50;;
12906;SDS011;6521;50.498;8.474;2024-01-11T00:19:34;34.87;;;18.37;;
12906;SDS011;6521;50.498;8.474;2024-01-11T00:22:04;35.50;;;17.50;;
12906;SDS011;6521;50.498;8.474;2024-01-11T00:24:36;34.10;;;17.90;;
12906;SDS011;6521;50.498;8.474;2024-01-11T00:27:07;34.47;;;16.93;;
12906;SDS011;6521;50.498;8.474;2024-01-11T00:29:37;36.13;;;16.17;;
12906;SDS011;6521;50.498;8.474;2024-01-11T00:32:09;32.97;;;17.47;;
12906;SDS011;6521;50.498;8.474;2024-01-11T00:34:40;28.77;;;16.30;;
12906;SDS011;6521;50.498;8.474;2024-01-11T00:37:10;34.17;;;17.63;;
12906;SDS011;6521;50.498;8.474;2024-01-11T00:39:41;34.37;;;17.53;;
12906;SDS011;6521;50.498;8.474;2024-01-11T00:42:12;32.37;;;16.90;;
12906;SDS011;6521;50.498;8.474;2024-01-11T00:44:42;36.60;;;18.20;;
12906;SDS011;6521;50.498;8.474;2024-01-11T00:47:15;32.87;;;16.90;;
12906;SDS011;6521;50.498;8.474;2024-01-11T00:49:46;35.63;;;18.30;;
12906;SDS011;6521;50.498;8.474;2024-01-11T00:52:17;36.57;;;18.00;;
12906;SDS011;6521;50.498;8.474;2024-01-11T00:54:47;33.50;;;17.37;;
12906;SDS011;6521;50.498;8.474;2024-01-11T00:57:18;33.40;;;16.30;;
12906;SDS011;6521;50.498;8.474;2024-01-11T00:59:48;30.57;;;16.43;;
12906;SDS011;6521;50.498;8.474;2024-01-11T01:02:19;37.57;;;17.03;;
12906;SDS011;6521;50.498;8.474;2024-01-11T01:04:51;34.33;;;16.80;;
12906;SDS011;6521;50.498;8.474;2024-01-11T01:07:22;30.87;;;16.47;;
12906;SDS011;6521;50.498;8.474;2024-01-11T01:09:52;32.50;;;17.07;;
12906;SDS011;6521;50.498;8.474;2024-01-11T01:12:24;34.37;;;16.90;;
12906;SDS011;6521;50.498;8.474;2024-01-11T01:14:59;33.70;;;17.13;;
12906;SDS011;6521;50.498;8.474;2024-01-11T01:17:29;34.20;;;17.97;;
12906;SDS011;6521;50.498;8.474;2024-01-11T01:20:00;37.87;;;17.20;;
12906;SDS011;6521;50.498;8.474;2024-01-11T01:22:31;36.93;;;17.80;;
12906;SDS011;6521;50.498;8.474;2024-01-11T01:25:01;35.33;;;16.40;;
12906;SDS011;6521;50.498;8.474;2024-01-11T01:27:32;36.43;;;17.63;;
12906;SDS011;6521;50.498;8.474;2024-01-11T01:30:03;40.33;;;18.93;;
12906;SDS011;6521;50.498;8.474;2024-01-11T01:32:34;31.53;;;15.77;;
12906;SDS011;6521;50.498;8.474;2024-01-11T01:35:05;38.33;;;18.57;;
12906;SDS011;6521;50.498;8.474;2024-01-11T01:37:36;38.33;;;18.80;;
12906;SDS011;6521;50.498;8.474;2024-01-11T01:40:06;37.10;;;18.47;;
12906;SDS011;6521;50.498;8.474;2024-01-11T01:42:44;35.77;;;17.63;;
12906;SDS011;6521;50.498;8.474;2024-01-11T01:45:15;36.97;;;18.30;;
12906;SDS011;6521;50.498;8.474;2024-01-11T01:47:47;35.07;;;18.93;;
12906;SDS011;6521;50.498;8.474;2024-01-11T01:50:18;37.47;;;18.70;;
12906;SDS011;6521;50.498;8.474;2024-01-11T01:52:50;37.27;;;18.47;;
12906;SDS011;6521;50.498;8.474;2024-01-11T01:55:22;33.23;;;16.73;;
12906;SDS011;6521;50.498;8.474;2024-01-11T01:57:53;38.73;;;17.03;;
12906;SDS011;6521;50.498;8.474;2024-01-11T02:00:24;40.00;;;17.87;;
12906;SDS011;6521;50.498;8.474;2024-01-11T02:02:55;35.47;;;18.17;;
12906;SDS011;6521;50.498;8.474;2024-01-11T02:05:27;35.67;;;17.63;;
12906;SDS011;6521;50.498;8.474;2024-01-11T02:07:58;35.57;;;18.17;;
12906;SDS011;6521;50.498;8.474;2024-01-11T02:10:31;38.87;;;17.60;;
12906;SDS011;6521;50.498;8.474;2024-01-11T02:13:03;31.43;;;16.57;;
12906;SDS011;6521;50.498;8.474;2024-01-11T02:15:36;32.77;;;17.70;;
12906;SDS011;6521;50.498;8.474;2024-01-11T02:18:07;38.27;;;19.07;;
12906;SDS011;6521;50.498;8.474;2024-01-11T02:20:38;36.90;;;17.87;;
12906;SDS011;6521;50.498;8.474;2024-01-11T02:23:11;40.27;;;17.83;;
12906;SDS011;6521;50.498;8.474;2024-01-11T02:25:44;34.03;;;17.67;;
12906;SDS011;6521;50.498;8.474;2024-01-11T02:28:15;41.30;;;19.77;;
12906;SDS011;6521;50.498;8.474;2024-01-11T02:30:46;41.93;;;19.87;;
12906;SDS011;6521;50.498;8.474;2024-01-11T02:33:16;42.07;;;20.37;;
12906;SDS011;6521;50.498;8.474;2024-01-11T02:35:49;40.90;;;19.03;;
12906;SDS011;6521;50.498;8.474;2024-01-11T02:38:19;33.57;;;17.20;;
12906;SDS011;6521;50.498;8.474;2024-01-11T02:40:50;35.60;;;19.80;;
12906;SDS011;6521;50.498;8.474;2024-01-11T02:43:21;39.73;;;20.10;;
12906;SDS011;6521;50.498;8.474;2024-01-11T02:45:55;38.43;;;20.93;;
12906;SDS011;6521;50.498;8.474;2024-01-11T02:48:29;41.30;;;19.30;;
12906;SDS011;6521;50.498;8.474;2024-01-11T02:51:00;41.23;;;20.27;;
12906;SDS011;6521;50.498;8.474;2024-01-11T02:53:31;39.07;;;21.27;;
12906;SDS011;6521;50.498;8.474;2024-01-11T02:56:04;42.97;;;20.50;;
12906;SDS011;6521;50.498;8.474;2024-01-11T02:58:35;40.83;;;18.87;;
12906;SDS011;6521;50.498;8.474;2024-01-11T03:01:06;42.37;;;19.37;;
12906;SDS011;6521;50.498;8.474;2024-01-11T03:03:36;44.23;;;18.80;;
12906;SDS011;6521;50.498;8.474;2024-01-11T03:06:07;34.00;;;18.47;;
12906;SDS011;6521;50.498;8.474;2024-01-11T03:08:37;36.57;;;18.37;;
12906;SDS011;6521;50.498;8.474;2024-01-11T03:11:08;36.90;;;18.57;;
12906;SDS011;6521;50.498;8.474;2024-01-11T03:13:39;38.53;;;20.67;;
12906;SDS011;6521;50.498;8.474;2024-01-11T03:16:10;39.67;;;20.10;;
12906;SDS011;6521;50.498;8.474;2024-01-11T03:18:40;37.13;;;19.80;;
12906;SDS011;6521;50.498;8.474;2024-01-11T03:21:12;42.73;;;21.47;;
12906;SDS011;6521;50.498;8.474;2024-01-11T03:23:43;42.33;;;20.60;;
12906;SDS011;6521;50.498;8.474;2024-01-11T03:26:15;38.33;;;18.23;;
12906;SDS011;6521;50.498;8.474;2024-01-11T03:28:46;39.83;;;19.37;;
12906;SDS011;6521;50.498;8.474;2024-01-11T03:31:17;40.13;;;19.43;;
12906;SDS011;6521;50.498;8.474;2024-01-11T03:33:48;36.47;;;19.00;;
12906;SDS011;6521;50.498;8.474;2024-01-11T03:36:22;42.20;;;21.77;;
12906;SDS011;6521;50.498;8.474;2024-01-11T03:38:54;42.17;;;21.13;;
12906;SDS011;6521;50.498;8.474;2024-01-11T03:41:24;42.43;;;21.00;;
12906;SDS011;6521;50.498;8.474;2024-01-11T03:43:55;39.70;;;21.37;;
12906;SDS011;6521;50.498;8.474;2024-01-11T03:46:26;44.50;;;23.90;;
12906;SDS011;6521;50.498;8.474;2024-01-11T03:48:56;48.73;;;23.93;;
12906;SDS011;6521;50.498;8.474;2024-01-11T03:51:27;41.43;;;22.83;;
12906;SDS011;6521;50.498;8.474;2024-01-11T03:53:58;46.93;;;24.33;;
12906;SDS011;6521;50.498;8.474;2024-01-11T03:56:28;43.40;;;23.60;;
12906;SDS011;6521;50.498;8.474;2024-01-11T03:58:59;43.37;;;24.13;;
12906;SDS011;6521;50.498;8.474;2024-01-11T04:01:30;42.63;;;22.00;;
12906;SDS011;6521;50.498;8.474;2024-01-11T04:04:00;38.90;;;21.27;;
12906;SDS011;6521;50.498;8.474;2024-01-11T04:06:31;41.17;;;22.10;;
12906;SDS011;6521;50.498;8.474;2024-01-11T04:09:02;44.83;;;21.93;;
12906;SDS011;6521;50.498;8.474;2024-01-11T04:11:32;41.57;;;22.03;;
12906;SDS011;6521;50.498;8.474;2024-01-11T04:14:03;43.30;;;22.63;;
12906;SDS011;6521;50.498;8.474;2024-01-11T04:16:34;41.80;;;20.83;;
12906;SDS011;6521;50.498;8.474;2024-01-11T04:19:04;44.87;;;21.50;;
12906;SDS011;6521;50.498;8.474;2024-01-11T04:21:35;41.43;;;22.03;;
12906;SDS011;6521;50.498;8.474;2024-01-11T04:24:07;44.33;;;22.90;;
12906;SDS011;6521;50.498;8.474;2024-01-11T04:26:38;47.10;;;21.97;;
12906;SDS011;6521;50.498;8.474;2024-01-11T04:29:08;41.27;;;20.93;;
12906;SDS011;6521;50.498;8.474;2024-01-11T04:31:39;40.50;;;21.57;;
12906;SDS011;6521;50.498;8.474;2024-01-11T04:34:10;44.80;;;23.03;;
12906;SDS011;6521;50.498;8.474;2024-01-11T04:36:41;42.97;;;22.33;;
12906;SDS011;6521;50.498;8.474;2024-01-11T04:39:11;39.77;;;21.03;;
12906;SDS011;6521;50.498;8.474;2024-01-11T04:41:44;44.90;;;21.07;;
12906;SDS011;6521;50.498;8.474;2024-01-11T04:44:15;42.03;;;21.60;;
12906;SDS011;6521;50.498;8.474;2024-01-11T04:46:46;38.20;;;21.23;;
12906;SDS011;6521;50.498;8.474;2024-01-11T04:49:16;45.73;;;22.57;;
12906;SDS011;6521;50.498;8.474;2024-01-11T04:51:47;38.73;;;21.93;;
12906;SDS011;6521;50.498;8.474;2024-01-11T04:54:17;45.03;;;22.83;;
12906;SDS011;6521;50.498;8.474;2024-01-11T04:56:48;40.20;;;21.80;;
12906;SDS011;6521;50.498;8.474;2024-01-11T04:59:20;40.40;;;22.87;;
12906;SDS011;6521;50.498;8.474;2024-01-11T05:01:50;43.63;;;23.47;;
12906;SDS011;6521;50.498;8.474;2024-01-11T05:04:21;44.73;;;22.57;;
12906;SDS011;6521;50.498;8.474;2024-01-11T05:06:52;38.57;;;21.43;;
12906;SDS011;6521;50.498;8.474;2024-01-11T05:09:23;45.50;;;21.70;;
12906;SDS011;6521;50.498;8.474;2024-01-11T05:11:54;37.47;;;20.17;;
12906;SDS011;6521;50.498;8.474;2024-01-11T05:14:24;42.60;;;21.67;;
12906;SDS011;6521;50.498;8.474;2024-01-11T05:16:55;39.37;;;20.20;;
12906;SDS011;6521;50.498;8.474;2024-01-11T05:19:26;39.53;;;19.97;;
12906;SDS011;6521;50.498;8.474;2024-01-11T05:21:56;43.03;;;21.30;;
12906;SDS011;6521;50.498;8.474;2024-01-11T05:24:27;38.23;;;21.27;;
12906;SDS011;6521;50.498;8.474;2024-01-11T05:26:58;37.30;;;20.97;;
12906;SDS011;6521;50.498;8.474;2024-01-11T05:29:29;40.73;;;21.13;;
12906;SDS011;6521;50.498;8.474;2024-01-11T05:32:00;39.90;;;20.63;;
12906;SDS011;6521;50.498;8.474;2024-01-11T05:34:31;40.17;;;22.07;;
12906;SDS011;6521;50.498;8.474;2024-01-11T05:37:02;38.97;;;20.73;;
12906;SDS011;6521;50.498;8.474;2024-01-11T05:39:33;47.33;;;20.47;;
12906;SDS011;6521;50.498;8.474;2024-01-11T05:42:03;41.30;;;23.43;;
12906;SDS011;6521;50.498;8.474;2024-01-11T05:44:34;44.23;;;21.23;;
12906;SDS011;6521;50.498;8.474;2024-01-11T05:47:05;42.93;;;21.77;;
12906;SDS011;6521;50.498;8.474;2024-01-11T05:49:35;40.10;;;21.27;;
12906;SDS011;6521;50.498;8.474;2024-01-11T05:52:06;40.53;;;21.07;;
12906;SDS011;6521;50.498;8.474;2024-01-11T05:54:36;37.83;;;19.67;;
12906;SDS011;6521;50.498;8.474;2024-01-11T05:57:07;42.47;;;22.27;;
12906;SDS011;6521;50.498;8.474;2024-01-11T05:59:42;44.97;;;22.30;;
12906;SDS011;6521;50.498;8.474;2024-01-11T06:02:14;37.37;;;19.87;;
12906;SDS011;6521;50.498;8.474;2024-01-11T06:04:44;37.77;;;19.87;;
12906;SDS011;6521;50.498;8.474;2024-01-11T06:07:17;35.00;;;19.93;;
12906;SDS011;6521;50.498;8.474;2024-01-11T06:09:47;39.70;;;19.70;;
12906;SDS011;6521;50.498;8.474;2024-01-11T06:12:18;39.90;;;20.23;;
12906;SDS011;6521;50.498;8.474;2024-01-11T06:14:49;37.93;;;20.13;;
12906;SDS011;6521;50.498;8.474;2024-01-11T06:17:19;53.63;;;21.77;;
12906;SDS011;6521;50.498;8.474;2024-01-11T06:19:50;45.77;;;21.87;;
12906;SDS011;6521;50.498;8.474;2024-01-11T06:22:20;41.00;;;21.97;;
12906;SDS011;6521;50.498;8.474;2024-01-11T06:24:51;45.73;;;20.43;;
12906;SDS011;6521;50.498;8.474;2024-01-11T06:27:22;47.27;;;22.23;;
12906;SDS011;6521;50.498;8.474;2024-01-11T06:29:52;37.50;;;20.97;;
12906;SDS011;6521;50.498;8.474;2024-01-11T06:32:23;39.33;;;20.40;;
12906;SDS011;6521;50.498;8.474;2024-01-11T06:34:54;46.30;;;22.50;;
12906;SDS011;6521;50.498;8.474;2024-01-11T06:37:25;48.90;;;22.13;;
12906;SDS011;6521;50.498;8.474;2024-01-11T06:39:55;43.40;;;22.63;;
12906;SDS011;6521;50.498;8.474;2024-01-11T06:42:26;42.80;;;21.87;;
12906;SDS011;6521;50.498;8.474;2024-01-11T06:44:56;48.70;;;21.90;;
12906;SDS011;6521;50.498;8.474;2024-01-11T06:47:27;48.37;;;22.87;;
12906;SDS011;6521;50.498;8.474;2024-01-11T06:49:58;42.63;;;21.20;;
12906;SDS011;6521;50.498;8.474;2024-01-11T06:52:29;42.67;;;21.67;;
12906;SDS011;6521;50.498;8.474;2024-01-11T06:55:01;47.30;;;22.97;;
12906;SDS011;6521;50.498;8.474;2024-01-11T06:57:32;44.07;;;22.53;;
12906;SDS011;6521;50.498;8.474;2024-01-11T07:00:03;46.07;;;22.43;;
12906;SDS011;6521;50.498;8.474;2024-01-11T07:02:34;50.00;;;23.43;;
12906;SDS011;6521;50.498;8.474;2024-01-11T07:05:05;48.67;;;22.17;;
12906;SDS011;6521;50.498;8.474;2024-01-11T07:07:37;48.93;;;23.27;;
12906;SDS011;6521;50.498;8.474;2024-01-11T07:10:08;67.30;;;22.37;;
12906;SDS011;6521;50.498;8.474;2024-01-11T07:12:39;52.87;;;22.97;;
12906;SDS011;6521;50.498;8.474;2024-01-11T07:15:11;42.80;;;21.53;;
12906;SDS011;6521;50.498;8.474;2024-01-11T07:17:43;54.90;;;21.40;;
12906;SDS011;6521;50.498;8.474;2024-01-11T07:20:13;48.23;;;22.37;;
12906;SDS011;6521;50.498;8.474;2024-01-11T07:22:47;43.10;;;22.40;;
12906;SDS011;6521;50.498;8.474;2024-01-11T07:25:17;50.60;;;23.00;;
12906;SDS011;6521;50.498;8.474;2024-01-11T07:27:48;45.90;;;24.37;;
12906;SDS011;6521;50.498;8.474;2024-01-11T07:30:18;43.13;;;21.13;;
12906;SDS011;6521;50.498;8.474;2024-01-11T07:32:49;48.00;;;22.90;;
12906;SDS011;6521;50.498;8.474;2024-01-11T07:35:20;43.73;;;21.63;;
12906;SDS011;6521;50.498;8.474;2024-01-11T07:37:51;43.07;;;23.00;;
12906;SDS011;6521;50.498;8.474;2024-01-11T07:40:22;41.83;;;23.57;;
12906;SDS011;6521;50.498;8.474;2024-01-11T07:42:53;42.70;;;22.63;;
12906;SDS011;6521;50.498;8.474;2024-01-11T07:45:24;52.87;;;24.20;;
12906;SDS011;6521;50.498;8.474;2024-01-11T07:47:54;42.23;;;22.87;;
12906;SDS011;6521;50.498;8.474;2024-01-11T07:50:25;64.80;;;24.13;;
12906;SDS011;6521;50.498;8.474;2024-01-11T07:52:56;55.67;;;23.50;;
12906;SDS011;6521;50.498;8.474;2024-01-11T07:55:26;44.77;;;23.40;;
12906;SDS011;6521;50.498;8.474;2024-01-11T07:57:57;51.13;;;23.83;;
12906;SDS011;6521;50.498;8.474;2024-01-11T08:00:28;45.30;;;22.73;;
12906;SDS011;6521;50.498;8.474;2024-01-11T08:02:59;52.13;;;26.37;;
12906;SDS011;6521;50.498;8.474;2024-01-11T08:05:30;50.77;;;25.43;;
12906;SDS011;6521;50.498;8.474;2024-01-11T08:08:00;59.70;;;27.13;;
12906;SDS011;6521;50.498;8.474;2024-01-11T08:10:33;47.67;;;26.03;;
12906;SDS011;6521;50.498;8.474;2024-01-11T08:13:04;49.80;;;24.70;;
12906;SDS011;6521;50.498;8.474;2024-01-11T08:15:34;49.13;;;26.57;;
12906;SDS011;6521;50.498;8.474;2024-01-11T08:18:06;51.77;;;26.03;;
12906;SDS011;6521;50.498;8.474;2024-01-11T08:20:36;51.10;;;26.37;;
12906;SDS011;6521;50.498;8.474;2024-01-11T08:23:09;48.37;;;25.17;;
12906;SDS011;6521;50.498;8.474;2024-01-11T08:25:40;49.33;;;24.57;;
12906;SDS011;6521;50.498;8.474;2024-01-11T08:28:11;49.17;;;22.87;;
12906;SDS011;6521;50.498;8.474;2024-01-11T08:30:42;56.00;;;25.87;;
12906;SDS011;6521;50.498;8.474;2024-01-11T08:33:12;58.63;;;26.03;;
12906;SDS011;6521;50.498;8.474;2024-01-11T08:35:44;78.77;;;27.50;;
12906;SDS011;6521;50.498;8.474;2024-01-11T08:38:14;74.33;;;31.40;;
12906;SDS011;6521;50.498;8.474;2024-01-11T08:40:45;59.30;;;29.10;;
12906;SDS011;6521;50.498;8.474;2024-01-11T08:43:16;56.57;;;28.60;;
12906;SDS011;6521;50.498;8.474;2024-01-11T08:45:47;70.03;;;33.90;;
12906;SDS011;6521;50.498;8.474;2024-01-11T08:48:18;61.73;;;32.00;;
12906;SDS011;6521;50.498;8.474;2024-01-11T08:50:48;61.30;;;29.77;;
12906;SDS011;6521;50.498;8.474;2024-01-11T08:53:19;51.90;;;28.03;;
12906;SDS011;6521;50.498;8.474;2024-01-11T08:55:50;53.63;;;26.03;;
12906;SDS011;6521;50.498;8.474;2024-01-11T08:58:21;49.17;;;23.77;;
12906;SDS011;6521;50.498;8.474;2024-01-11T09:00:51;49.60;;;24.67;;
12906;SDS011;6521;50.498;8.474;2024-01-11T09:03:22;48.07;;;24.30;;
12906;SDS011;6521;50.498;8.474;2024-01-11T09:05:52;64.43;;;32.93;;
12906;SDS011;6521;50.498;8.474;2024-01-11T09:08:27;76.77;;;36.77;;
12906;SDS011;6521;50.498;8.474;2024-01-11T09:10:58;103.87;;;41.67;;
12906;SDS011;6521;50.498;8.474;2024-01-11T09:13:29;67.53;;;30.27;;
12906;SDS011;6521;50.498;8.474;2024-01-11T09:16:00;72.33;;;34.67;;
12906;SDS011;6521;50.498;8.474;2024-01-11T09:18:31;67.10;;;31.70;;
12906;SDS011;6521;50.498;8.474;2024-01-11T09:21:01;59.37;;;29.63;;
12906;SDS011;6521;50.498;8.474;2024-01-11T09:23:34;42.67;;;24.53;;
12906;SDS011;6521;50.498;8.474;2024-01-11T09:26:05;46.10;;;25.00;;
12906;SDS011;6521;50.498;8.474;2024-01-11T09:28:36;59.40;;;26.43;;
12906;SDS011;6521;50.498;8.474;2024-01-11T09:31:06;50.17;;;26.57;;
12906;SDS011;6521;50.498;8.474;2024-01-11T09:33:37;49.87;;;25.83;;
12906;SDS011;6521;50.498;8.474;2024-01-11T09:36:09;50.40;;;23.80;;
12906;SDS011;6521;50.498;8.474;2024-01-11T09:38:40;45.50;;;23.17;;
12906;SDS011;6521;50.498;8.474;2024-01-11T09:41:12;44.03;;;20.60;;
12906;SDS011;6521;50.498;8.474;2024-01-11T09:43:43;41.40;;;20.30;;
12906;SDS011;6521;50.498;8.474;2024-01-11T09:46:16;42.10;;;21.07;;
12906;SDS011;6521;50.498;8.474;2024-01-11T09:48:46;36.07;;;18.33;;
12906;SDS011;6521;50.498;8.474;2024-01-11T09:51:18;40.50;;;19.30;;
12906;SDS011;6521;50.498;8.474;2024-01-11T09:53:49;42.43;;;20.70;;
12906;SDS011;6521;50.498;8.474;2024-01-11T09:56:21;42.03;;;22.10;;
12906;SDS011;6521;50.498;8.474;2024-01-11T09:58:53;54.20;;;21.30;;
12906;SDS011;6521;50.498;8.474;2024-01-11T10:01:24;38.53;;;20.60;;
12906;SDS011;6521;50.498;8.474;2024-01-11T10:03:55;40.43;;;20.87;;
12906;SDS011;6521;50.498;8.474;2024-01-11T10:06:26;44.67;;;22.80;;
12906;SDS011;6521;50.498;8.474;2024-01-11T10:08:57;49.20;;;25.60;;
12906;SDS011;6521;50.498;8.474;2024-01-11T10:11:28;47.63;;;24.33;;
12906;SDS011;6521;50.498;8.474;2024-01-11T10:13:58;42.83;;;24.03;;
12906;SDS011;6521;50.498;8.474;2024-01-11T10:16:30;41.17;;;22.37;;
12906;SDS011;6521;50.498;8.474;2024-01-11T10:19:02;44.37;;;23.33;;
12906;SDS011;6521;50.498;8.474;2024-01-11T10:21:33;43.13;;;24.10;;
12906;SDS011;6521;50.498;8.474;2024-01-11T10:24:09;37.67;;;21.43;;
12906;SDS011;6521;50.498;8.474;2024-01-11T10:26:40;36.77;;;20.87;;
12906;SDS011;6521;50.498;8.474;2024-01-11T10:29:14;34.90;;;20.57;;
12906;SDS011;6521;50.498;8.474;2024-01-11T10:31:45;36.87;;;20.27;;
12906;SDS011;6521;50.498;8.474;2024-01-11T10:34:16;39.33;;;19.83;;
12906;SDS011;6521;50.498;8.474;2024-01-11T10:36:47;31.27;;;17.83;;
12906;SDS011;6521;50.498;8.474;2024-01-11T10:39:17;33.27;;;19.23;;
12906;SDS011;6521;50.498;8.474;2024-01-11T10:42:02;30.57;;;18.20;;
12906;SDS011;6521;50.498;8.474;2024-01-11T10:44:35;34.10;;;19.10;;
12906;SDS011;6521;50.498;8.474;2024-01-11T10:47:06;28.27;;;16.97;;
12906;SDS011;6521;50.498;8.474;2024-01-11T10:49:39;30.60;;;17.40;;
12906;SDS011;6521;50.498;8.474;2024-01-11T10:52:12;31.67;;;19.33;;
12906;SDS011;6521;50.498;8.474;2024-01-11T10:54:43;38.10;;;20.23;;
12906;SDS011;6521;50.498;8.474;2024-01-11T10:57:13;34.07;;;18.27;;
12906;SDS011;6521;50.498;8.474;2024-01-11T10:59:44;34.83;;;17.97;;
12906;SDS011;6521;50.498;8.474;2024-01-11T11:02:16;31.93;;;16.60;;
12906;SDS011;6521;50.498;8.474;2024-01-11T11:04:48;26.63;;;16.07;;
12906;SDS011;6521;50.498;8.474;2024-01-11T11:07:23;42.07;;;19.40;;
12906;SDS011;6521;50.498;8.474;2024-01-11T11:09:54;34.50;;;18.43;;
12906;SDS011;6521;50.498;8.474;2024-01-11T11:12:26;35.40;;;18.80;;
12906;SDS011;6521;50.498;8.474;2024-01-11T11:14:58;33.60;;;18.30;;
12906;SDS011;6521;50.498;8.474;2024-01-11T11:17:31;27.43;;;17.33;;
12906;SDS011;6521;50.498;8.474;2024-01-11T11:20:02;29.03;;;17.93;;
12906;SDS011;6521;50.498;8.474;2024-01-11T11:22:36;26.07;;;16.47;;
12906;SDS011;6521;50.498;8.474;2024-01-11T11:25:10;22.37;;;14.70;;
12906;SDS011;6521;50.498;8.474;2024-01-11T11:27:41;22.60;;;15.07;;
12906;SDS011;6521;50.498;8.474;2024-01-11T11:30:11;23.43;;;15.37;;
12906;SDS011;6521;50.498;8.474;2024-01-11T11:32:43;22.87;;;14.23;;
12906;SDS011;6521;50.498;8.474;2024-01-11T11:35:14;22.13;;;14.80;;
12906;SDS011;6521;50.498;8.474;2024-01-11T11:37:44;30.90;;;14.63;;
12906;SDS011;6521;50.498;8.474;2024-01-11T11:40:15;28.43;;;12.57;;
12906;SDS011;6521;50.498;8.474;2024-01-11T11:42:47;21.17;;;11.57;;
12906;SDS011;6521;50.498;8.474;2024-01-11T11:45:24;23.13;;;11.60;;
12906;SDS011;6521;50.498;8.474;2024-01-11T11:47:55;16.83;;;11.13;;
12906;SDS011;6521;50.498;8.474;2024-01-11T11:50:26;19.83;;;11.40;;
12906;SDS011;6521;50.498;8.474;2024-01-11T11:52:57;18.47;;;11.40;;
12906;SDS011;6521;50.498;8.474;2024-01-11T11:55:28;16.53;;;11.67;;
12906;SDS011;6521;50.498;8.474;2024-01-11T11:57:59;21.80;;;10.93;;
12906;SDS011;6521;50.498;8.474;2024-01-11T12:00:30;19.27;;;11.17;;
12906;SDS011;6521;50.498;8.474;2024-01-11T12:03:04;15.93;;;10.73;;
12906;SDS011;6521;50.498;8.474;2024-01-11T12:05:37;16.83;;;11.20;;
12906;SDS011;6521;50.498;8.474;2024-01-11T12:08:08;17.50;;;11.30;;
12906;SDS011;6521;50.498;8.474;2024-01-11T12:10:39;20.20;;;10.50;;
12906;SDS011;6521;50.498;8.474;2024-01-11T12:13:10;25.33;;;10.60;;
12906;SDS011;6521;50.498;8.474;2024-01-11T12:15:42;15.80;;;9.57;;
12906;SDS011;6521;50.498;8.474;2024-01-11T12:18:12;19.90;;;9.20;;
12906;SDS011;6521;50.498;8.474;2024-01-11T12:20:44;16.90;;;9.37;;
12906;SDS011;6521;50.498;8.474;2024-01-11T12:23:15;15.87;;;10.27;;
12906;SDS011;6521;50.498;8.474;2024-01-11T12:25:46;15.73;;;9.77;;
12906;SDS011;6521;50.498;8.474;2024-01-11T12:28:17;15.10;;;9.47;;
12906;SDS011;6521;50.498;8.474;2024-01-11T12:30:48;15.77;;;9.67;;
12906;SDS011;6521;50.498;8.474;2024-01-11T12:33:19;17.20;;;10.53;;
12906;SDS011;6521;50.498;8.474;2024-01-11T12:35:50;15.67;;;10.43;;
12906;SDS011;6521;50.498;8.474;2024-01-11T12:38:21;14.33;;;9.30;;
12906;SDS011;6521;50.498;8.474;2024-01-11T12:40:51;15.20;;;9.43;;
12906;SDS011;6521;50.498;8.474;2024-01-11T12:43:22;16.40;;;9.57;;
12906;SDS011;6521;50.498;8.474;2024-01-11T12:45:53;14.27;;;9.87;;
12906;SDS011;6521;50.498;8.474;2024-01-11T12:48:24;16.07;;;10.00;;
12906;SDS011;6521;50.498;8.474;2024-01-11T12:50:55;13.97;;;8.87;;
12906;SDS011;6521;50.498;8.474;2024-01-11T12:53:25;15.77;;;10.20;;
12906;SDS011;6521;50.498;8.474;2024-01-11T12:56:03;14.47;;;9.23;;
12906;SDS011;6521;50.498;8.474;2024-01-11T12:58:39;18.93;;;9.03;;
12906;SDS011;6521;50.498;8.474;2024-01-11T13:01:11;15.03;;;9.27;;
12906;SDS011;6521;50.498;8.474;2024-01-11T13:03:45;13.50;;;9.40;;
12906;SDS011;6521;50.498;8.474;2024-01-11T13:06:16;14.07;;;9.47;;
12906;SDS011;6521;50.498;8.474;2024-01-11T13:08:49;14.93;;;9.50;;
12906;SDS011;6521;50.498;8.474;2024-01-11T13:11:20;12.47;;;8.40;;
12906;SDS011;6521;50.498;8.474;2024-01-11T13:13:51;15.23;;;9.33;;
12906;SDS011;6521;50.498;8.474;2024-01-11T13:16:22;17.27;;;8.67;;
12906;SDS011;6521;50.498;8.474;2024-01-11T13:18:55;16.37;;;8.63;;
12906;SDS011;6521;50.498;8.474;2024-01-11T13:21:28;15.07;;;8.23;;
12906;SDS011;6521;50.498;8.474;2024-01-11T13:23:59;14.93;;;7.73;;
12906;SDS011;6521;50.498;8.474;2024-01-11T13:26:30;21.37;;;12.10;;
12906;SDS011;6521;50.498;8.474;2024-01-11T13:29:01;15.50;;;10.07;;
12906;SDS011;6521;50.498;8.474;2024-01-11T13:31:32;12.60;;;8.70;;
12906;SDS011;6521;50.498;8.474;2024-01-11T13:34:03;17.33;;;8.67;;
12906;SDS011;6521;50.498;8.474;2024-01-11T13:36:34;17.30;;;9.47;;
12906;SDS011;6521;50.498;8.474;2024-01-11T13:39:05;20.53;;;8.93;;
12906;SDS011;6521;50.498;8.474;2024-01-11T13:41:38;16.40;;;9.50;;
12906;SDS011;6521;50.498;8.474;2024-01-11T13:44:11;11.87;;;8.27;;
12906;SDS011;6521;50.498;8.474;2024-01-11T13:46:42;14.33;;;8.83;;
12906;SDS011;6521;50.498;8.474;2024-01-11T13:49:14;12.70;;;8.13;;
12906;SDS011;6521;50.498;8.474;2024-01-11T13:51:44;12.37;;;7.93;;
12906;SDS011;6521;50.498;8.474;2024-01-11T13:54:15;13.67;;;8.70;;
12906;SDS011;6521;50.498;8.474;2024-01-11T13:56:46;13.37;;;8.00;;
12906;SDS011;6521;50.498;8.474;2024-01-11T13:59:16;15.63;;;9.40;;
12906;SDS011;6521;50.498;8.474;2024-01-11T14:01:47;19.90;;;9.83;;
12906;SDS011;6521;50.498;8.474;2024-01-11T14:04:18;18.40;;;8.93;;
12906;SDS011;6521;50.498;8.474;2024-01-11T14:06:48;21.33;;;9.00;;
12906;SDS011;6521;50.498;8.474;2024-01-11T14:09:21;14.30;;;8.87;;
12906;SDS011;6521;50.498;8.474;2024-01-11T14:11:52;12.80;;;7.60;;
12906;SDS011;6521;50.498;8.474;2024-01-11T14:14:23;18.73;;;8.97;;
12906;SDS011;6521;50.498;8.474;2024-01-11T14:16:54;14.17;;;8.20;;
12906;SDS011;6521;50.498;8.474;2024-01-11T14:19:24;24.37;;;8.83;;
12906;SDS011;6521;50.498;8.474;2024-01-11T14:21:55;13.73;;;8.07;;
12906;SDS011;6521;50.498;8.474;2024-01-11T14:24:26;11.60;;;7.90;;
12906;SDS011;6521;50.498;8.474;2024-01-11T14:26:57;12.77;;;7.90;;
12906;SDS011;6521;50.498;8.474;2024-01-11T14:29:27;14.83;;;8.47;;
12906;SDS011;6521;50.498;8.474;2024-01-11T14:31:59;13.07;;;8.30;;
12906;SDS011;6521;50.498;8.474;2024-01-11T14:34:30;18.30;;;10.73;;
12906;SDS011;6521;50.498;8.474;2024-01-11T14:37:00;15.37;;;10.37;;
12906;SDS011;6521;50.498;8.474;2024-01-11T14:39:31;17.30;;;10.07;;
12906;SDS011;6521;50.498;8.474;2024-01-11T14:42:03;26.43;;;13.37;;
12906;SDS011;6521;50.498;8.474;2024-01-11T14:44:35;24.10;;;11.53;;
12906;SDS011;6521;50.498;8.474;2024-01-11T14:47:06;19.47;;;10.83;;
12906;SDS011;6521;50.498;8.474;2024-01-11T14:49:37;30.83;;;13.37;;
12906;SDS011;6521;50.498;8.474;2024-01-11T14:52:08;19.37;;;11.17;;
12906;SDS011;6521;50.498;8.474;2024-01-11T14:54:39;19.80;;;11.40;;
12906;SDS011;6521;50.498;8.474;2024-01-11T14:57:09;21.40;;;11.63;;
12906;SDS011;6521;50.498;8.474;2024-01-11T14:59:40;21.80;;;11.13;;